createdAt,value
2023-12-28T00:02:18.456Z,64.73
2023-12-28T00:04:45.256Z,48.07
2023-12-28T00:07:15.066Z,40.77
2023-12-28T00:09:42.110Z,44.57
2023-12-28T00:12:08.986Z,39.27
2023-12-28T00:14:35.717Z,40.20
2023-12-28T00:17:02.375Z,49.73
2023-12-28T00:19:29.183Z,60.90
2023-12-28T00:21:55.945Z,53.30
2023-12-28T00:24:22.907Z,33.07
2023-12-28T00:26:49.935Z,37.00
2023-12-28T00:29:16.693Z,28.17
2023-12-28T00:31:43.591Z,36.33
2023-12-28T00:34:10.528Z,42.60
2023-12-28T00:36:40.286Z,54.70
2023-12-28T00:39:07.017Z,49.70
2023-12-28T00:41:33.748Z,38.17
2023-12-28T00:44:01.785Z,38.13
2023-12-28T00:46:28.588Z,51.33
2023-12-28T00:48:56.702Z,40.00
2023-12-28T00:51:23.540Z,34.73
2023-12-28T00:53:51.303Z,38.33
2023-12-28T00:56:18.210Z,48.03
2023-12-28T00:58:45.151Z,59.87
2023-12-28T01:01:12.216Z,57.07
2023-12-28T01:03:39.149Z,76.33
2023-12-28T01:06:06.667Z,46.60
2023-12-28T01:08:35.214Z,42.17
2023-12-28T01:11:03.057Z,52.37
2023-12-28T01:13:30.138Z,25.33
2023-12-28T01:15:56.943Z,27.27
2023-12-28T01:18:23.828Z,25.20
2023-12-28T01:20:50.610Z,20.23
2023-12-28T01:23:17.385Z,28.37
2023-12-28T01:25:44.116Z,35.47
2023-12-28T01:28:10.903Z,24.70
2023-12-28T01:30:38.231Z,20.73
2023-12-28T01:33:05.701Z,17.37
2023-12-28T01:35:32.570Z,16.83
2023-12-28T01:38:01.601Z,14.37
2023-12-28T01:40:28.590Z,12.37
2023-12-28T01:42:55.397Z,15.87
2023-12-28T01:45:22.233Z,22.80
2023-12-28T01:47:52.703Z,19.20
2023-12-28T01:50:20.071Z,16.33
2023-12-28T01:52:47.874Z,18.40
2023-12-28T01:55:14.899Z,25.40
2023-12-28T01:57:41.818Z,24.80
2023-12-28T02:00:09.132Z,21.00
2023-12-28T02:02:37.252Z,24.47
2023-12-28T02:05:04.488Z,19.90
2023-12-28T02:07:33.379Z,28.03
2023-12-28T02:10:00.228Z,23.50
2023-12-28T02:12:27.121Z,14.73
2023-12-28T02:14:53.852Z,14.03
2023-12-28T02:17:34.512Z,11.27
2023-12-28T02:20:02.161Z,11.47
2023-12-28T02:22:38.949Z,17.97
2023-12-28T02:25:07.810Z,13.53
2023-12-28T02:27:44.861Z,14.30
2023-12-28T02:30:12.826Z,14.57
2023-12-28T02:32:53.677Z,27.80
2023-12-28T02:35:29.658Z,28.53
2023-12-28T02:37:59.616Z,14.60
2023-12-28T02:40:28.436Z,14.73
2023-12-28T02:42:55.644Z,13.33
2023-12-28T02:45:22.556Z,12.13
2023-12-28T02:47:49.357Z,15.57
2023-12-28T02:50:16.168Z,14.17
2023-12-28T02:52:42.891Z,17.70
2023-12-28T02:55:10.291Z,19.33
2023-12-28T02:57:39.115Z,21.23
2023-12-28T03:00:07.049Z,33.50
2023-12-28T03:02:34.056Z,23.40
2023-12-28T03:05:00.940Z,25.47
2023-12-28T03:07:27.856Z,21.60
2023-12-28T03:09:54.562Z,22.17
2023-12-28T03:12:21.320Z,26.27
2023-12-28T03:14:48.024Z,19.70
2023-12-28T03:17:15.033Z,20.13
2023-12-28T03:19:41.993Z,15.13
2023-12-28T03:22:08.852Z,11.97
2023-12-28T03:24:37.585Z,12.37
2023-12-28T03:27:05.613Z,13.67
2023-12-28T03:29:32.618Z,15.93
2023-12-28T03:32:00.225Z,15.53
2023-12-28T03:34:31.382Z,22.70
2023-12-28T03:37:01.055Z,22.37
2023-12-28T03:39:27.827Z,23.37
2023-12-28T03:41:54.784Z,25.83
2023-12-28T03:44:22.208Z,23.80
2023-12-28T03:46:50.238Z,23.93
2023-12-28T03:49:21.340Z,24.23
2023-12-28T03:51:50.243Z,21.63
2023-12-28T03:54:18.005Z,22.63
2023-12-28T03:56:45.170Z,15.43
2023-12-28T03:59:12.044Z,14.53
2023-12-28T04:01:38.927Z,18.70
2023-12-28T04:04:06.035Z,14.87
2023-12-28T04:06:33.343Z,12.97
2023-12-28T04:09:00.154Z,12.27
2023-12-28T04:11:26.883Z,13.53
2023-12-28T04:13:53.657Z,12.20
2023-12-28T04:16:20.358Z,12.53
2023-12-28T04:18:47.405Z,15.13
2023-12-28T04:21:15.076Z,12.73
2023-12-28T04:23:42.830Z,13.03
2023-12-28T04:26:09.857Z,15.73
2023-12-28T04:28:36.950Z,25.37
2023-12-28T04:31:08.001Z,19.53
2023-12-28T04:33:36.579Z,29.60
2023-12-28T04:36:07.351Z,47.97
2023-12-28T04:38:34.295Z,51.90
2023-12-28T04:41:02.126Z,40.33
2023-12-28T04:43:29.156Z,38.60
2023-12-28T04:45:55.989Z,32.43
2023-12-28T04:48:29.618Z,29.50
2023-12-28T04:50:56.465Z,31.93
2023-12-28T04:53:23.238Z,31.57
2023-12-28T04:55:49.940Z,51.73
2023-12-28T04:58:16.798Z,55.53
2023-12-28T05:00:44.054Z,34.80
2023-12-28T05:03:10.946Z,44.40
2023-12-28T05:05:37.699Z,41.07
2023-12-28T05:08:06.130Z,43.57
2023-12-28T05:10:32.825Z,34.53
2023-12-28T05:13:02.020Z,41.13
2023-12-28T05:15:30.302Z,40.50
2023-12-28T05:17:58.915Z,94.83
2023-12-28T05:20:26.050Z,185.47
2023-12-28T05:22:52.739Z,159.87
2023-12-28T05:25:19.427Z,117.67
2023-12-28T05:27:46.262Z,100.73
2023-12-28T05:30:13.683Z,105.60
2023-12-28T05:32:40.866Z,82.70
2023-12-28T05:35:08.500Z,60.40
2023-12-28T05:37:35.442Z,57.37
2023-12-28T05:40:02.346Z,62.13
2023-12-28T05:42:29.208Z,61.83
2023-12-28T05:44:55.982Z,79.13
2023-12-28T05:47:22.748Z,60.03
2023-12-28T05:49:49.808Z,53.57
2023-12-28T05:52:19.852Z,53.23
2023-12-28T05:54:47.041Z,46.57
2023-12-28T05:57:13.929Z,46.00
2023-12-28T05:59:43.442Z,48.77
2023-12-28T06:02:10.272Z,33.43
2023-12-28T06:04:37.200Z,47.77
2023-12-28T06:07:06.096Z,36.13
2023-12-28T06:09:33.878Z,52.63
2023-12-28T06:12:01.123Z,44.90
2023-12-28T06:14:28.110Z,51.47
2023-12-28T06:16:54.981Z,47.57
2023-12-28T06:19:22.104Z,44.30
2023-12-28T06:21:52.515Z,42.40
2023-12-28T06:24:19.335Z,42.87
2023-12-28T06:26:46.576Z,38.30
2023-12-28T06:29:13.473Z,44.13
2023-12-28T06:31:41.993Z,50.57
2023-12-28T06:34:09.603Z,48.57
2023-12-28T06:36:36.921Z,49.13
2023-12-28T06:39:04.687Z,49.53
2023-12-28T06:41:31.496Z,55.87
2023-12-28T06:43:58.184Z,62.57
2023-12-28T06:46:24.922Z,52.43
2023-12-28T06:48:51.773Z,63.13
2023-12-28T06:51:23.856Z,54.80
2023-12-28T06:53:51.243Z,59.07
2023-12-28T06:56:18.918Z,58.53
2023-12-28T06:58:45.928Z,59.03
2023-12-28T07:01:13.766Z,54.22
2023-12-28T07:03:42.226Z,82.45
2023-12-28T07:06:09.908Z,73.55
2023-12-28T07:08:37.720Z,82.50
2023-12-28T07:11:05.608Z,58.30
2023-12-28T07:13:33.336Z,56.40
2023-12-28T07:16:01.138Z,60.22
2023-12-28T07:18:29.446Z,43.90
2023-12-28T07:20:56.830Z,45.42
2023-12-28T07:23:23.515Z,50.67
2023-12-28T07:25:50.848Z,49.78
2023-12-28T07:28:18.108Z,52.33
2023-12-28T07:30:44.943Z,68.97
2023-12-28T07:33:12.210Z,102.40
2023-12-28T07:35:45.664Z,84.47
2023-12-28T07:38:13.086Z,77.45
2023-12-28T07:40:40.255Z,99.82
2023-12-28T07:43:07.068Z,82.28
2023-12-28T07:45:35.996Z,83.80
2023-12-28T07:48:03.721Z,71.57
2023-12-28T07:50:30.623Z,57.58
2023-12-28T07:52:57.814Z,41.60
2023-12-28T07:55:27.291Z,69.00
2023-12-28T07:57:55.528Z,52.33
2023-12-28T08:00:22.434Z,41.55
2023-12-28T08:02:49.145Z,47.80
2023-12-28T08:05:15.922Z,59.90
2023-12-28T08:07:42.648Z,50.33
2023-12-28T08:10:09.843Z,41.78
2023-12-28T08:12:37.616Z,42.92
2023-12-28T08:15:04.910Z,42.58
2023-12-28T08:17:32.728Z,53.50
2023-12-28T08:20:00.971Z,56.50
2023-12-28T08:22:29.367Z,52.42
2023-12-28T08:24:56.153Z,45.60
2023-12-28T08:27:22.963Z,45.88
2023-12-28T08:29:50.046Z,38.90
2023-12-28T08:32:18.480Z,42.05
2023-12-28T08:34:45.693Z,43.47
2023-12-28T08:37:12.608Z,39.40
2023-12-28T08:39:41.079Z,34.00
2023-12-28T08:42:09.011Z,49.55
2023-12-28T08:44:37.857Z,60.58
2023-12-28T08:47:05.258Z,45.50
2023-12-28T08:49:32.082Z,37.25
2023-12-28T08:51:58.823Z,49.58
2023-12-28T08:54:25.507Z,35.03
2023-12-28T08:56:53.713Z,25.58
2023-12-28T08:59:22.525Z,28.55
2023-12-28T09:01:49.677Z,27.75
2023-12-28T09:04:20.768Z,12.30
2023-12-28T09:06:47.564Z,15.35
2023-12-28T09:09:14.361Z,16.52
2023-12-28T09:11:41.076Z,30.48
2023-12-28T09:14:07.788Z,26.52
2023-12-28T09:16:34.529Z,29.92
2023-12-28T09:19:01.376Z,37.03
2023-12-28T09:21:28.399Z,28.98
2023-12-28T09:23:55.164Z,22.63
2023-12-28T09:26:21.816Z,22.35
2023-12-28T09:28:50.501Z,22.98
2023-12-28T09:31:17.575Z,25.05
2023-12-28T09:33:44.890Z,30.08
2023-12-28T09:36:14.331Z,18.77
2023-12-28T09:38:41.180Z,16.98
2023-12-28T09:41:15.480Z,16.38
2023-12-28T09:43:56.672Z,17.83
2023-12-28T09:46:24.402Z,22.70
2023-12-28T09:48:51.351Z,17.00
2023-12-28T09:51:19.271Z,15.43
2023-12-28T09:53:46.217Z,12.05
2023-12-28T09:56:15.596Z,16.02
2023-12-28T09:58:43.773Z,16.63
2023-12-28T10:01:11.459Z,13.93
2023-12-28T10:03:38.773Z,11.07
2023-12-28T10:06:05.838Z,7.10
2023-12-28T10:08:33.686Z,10.02
2023-12-28T10:11:02.278Z,10.13
2023-12-28T10:13:30.361Z,13.10
2023-12-28T10:16:00.452Z,14.05
2023-12-28T10:18:27.595Z,13.60
2023-12-28T10:20:56.105Z,11.57
2023-12-28T10:23:23.212Z,5.80
2023-12-28T10:25:54.195Z,4.20
2023-12-28T10:28:21.108Z,13.23
2023-12-28T10:30:47.938Z,9.27
2023-12-28T10:33:15.869Z,11.77
2023-12-28T10:35:44.726Z,9.88
2023-12-28T10:38:14.985Z,15.18
2023-12-28T10:40:43.012Z,20.48
2023-12-28T10:43:15.351Z,12.30
2023-12-28T10:45:44.531Z,17.90
2023-12-28T10:48:13.155Z,20.38
2023-12-28T10:50:48.015Z,16.02
2023-12-28T10:53:32.607Z,19.98
2023-12-28T10:56:12.957Z,13.75
2023-12-28T10:59:08.306Z,13.95
2023-12-28T11:01:40.915Z,8.63
2023-12-28T11:04:26.235Z,7.65
2023-12-28T11:09:23.151Z,6.78
2023-12-28T11:11:52.499Z,10.55
2023-12-28T11:14:19.485Z,14.20
2023-12-28T11:16:46.942Z,17.50
2023-12-28T11:19:14.886Z,15.98
2023-12-28T11:21:42.682Z,5.68
2023-12-28T11:24:09.982Z,9.93
2023-12-28T11:26:36.815Z,9.80
2023-12-28T11:29:05.046Z,8.00
2023-12-28T11:31:36.367Z,6.47
2023-12-28T11:34:06.081Z,6.55
2023-12-28T11:36:37.811Z,9.57
2023-12-28T11:39:07.890Z,11.52
2023-12-28T11:41:37.359Z,8.10
2023-12-28T11:44:07.339Z,12.35
2023-12-28T11:46:36.888Z,9.30
2023-12-28T11:49:10.767Z,12.80
2023-12-28T11:51:40.266Z,9.20
2023-12-28T11:54:07.930Z,6.45
2023-12-28T11:56:35.166Z,7.70
2023-12-28T11:59:03.270Z,8.60
2023-12-28T12:01:30.059Z,8.80
2023-12-28T12:03:57.064Z,9.65
2023-12-28T12:06:25.381Z,11.43
2023-12-28T12:08:52.186Z,13.07
2023-12-28T12:11:19.823Z,11.90
2023-12-28T12:13:47.262Z,11.20
2023-12-28T12:16:17.301Z,9.75
2023-12-28T12:18:44.683Z,11.50
2023-12-28T12:21:11.625Z,15.63
2023-12-28T12:23:38.917Z,16.85
2023-12-28T12:26:08.865Z,20.38
2023-12-28T12:28:36.798Z,16.50
2023-12-28T12:31:04.507Z,11.38
2023-12-28T12:33:32.600Z,20.05
2023-12-28T12:35:59.735Z,20.17
2023-12-28T12:38:26.525Z,10.15
2023-12-28T12:40:54.128Z,12.52
2023-12-28T12:43:21.723Z,12.00
2023-12-28T12:45:49.503Z,11.77
2023-12-28T12:48:17.030Z,13.38
2023-12-28T12:50:45.126Z,15.02
2023-12-28T12:53:12.454Z,10.73
2023-12-28T12:55:47.594Z,13.18
2023-12-28T12:58:17.576Z,26.90
2023-12-28T13:00:46.685Z,15.57
2023-12-28T13:03:13.639Z,13.00
2023-12-28T13:05:40.800Z,21.33
2023-12-28T13:08:09.240Z,18.17
2023-12-28T13:10:35.994Z,21.40
2023-12-28T13:13:03.449Z,18.40
2023-12-28T13:15:30.408Z,18.85
2023-12-28T13:17:57.243Z,19.50
2023-12-28T13:20:23.948Z,17.50
2023-12-28T13:22:50.709Z,12.82
2023-12-28T13:25:17.521Z,18.00
2023-12-28T13:27:44.742Z,16.20
2023-12-28T13:30:13.392Z,16.33
2023-12-28T13:32:42.217Z,13.38
2023-12-28T13:35:11.287Z,22.90
2023-12-28T13:37:37.989Z,30.13
2023-12-28T13:40:06.192Z,31.88
2023-12-28T13:42:32.940Z,21.48
2023-12-28T13:44:59.655Z,30.63
2023-12-28T13:47:26.506Z,47.63
2023-12-28T13:49:53.366Z,27.95
2023-12-28T13:52:20.169Z,27.40
2023-12-28T13:54:46.937Z,34.05
2023-12-28T13:57:14.175Z,67.90
2023-12-28T13:59:40.892Z,50.45
2023-12-28T14:02:07.584Z,48.22
2023-12-28T14:04:34.480Z,51.15
2023-12-28T14:07:01.427Z,69.68
2023-12-28T14:09:28.282Z,64.72
2023-12-28T14:11:56.465Z,75.43
2023-12-28T14:14:23.283Z,59.08
2023-12-28T14:16:50.027Z,38.28
2023-12-28T14:19:16.866Z,32.03
2023-12-28T14:21:44.281Z,28.27
2023-12-28T14:24:11.566Z,26.40
2023-12-28T14:26:45.566Z,26.75
2023-12-28T14:29:16.654Z,23.63
2023-12-28T14:31:53.529Z,23.33
2023-12-28T14:34:21.410Z,25.77
2023-12-28T14:36:51.292Z,23.40
2023-12-28T14:39:22.500Z,26.30
2023-12-28T14:41:49.310Z,35.42
2023-12-28T14:44:16.090Z,56.85
2023-12-28T14:46:42.804Z,63.78
2023-12-28T14:49:09.737Z,62.13
2023-12-28T14:51:36.630Z,56.03
2023-12-28T14:54:03.701Z,48.40
2023-12-28T14:56:39.860Z,42.55
2023-12-28T14:59:11.732Z,44.95
2023-12-28T15:01:38.515Z,62.17
2023-12-28T15:04:05.552Z,55.13
2023-12-28T15:06:34.520Z,54.05
2023-12-28T15:09:01.254Z,54.80
2023-12-28T15:11:40.830Z,56.42
2023-12-28T15:14:22.223Z,113.03
2023-12-28T15:16:49.702Z,118.30
2023-12-28T15:19:17.224Z,91.57
2023-12-28T15:21:44.765Z,70.22
2023-12-28T15:24:12.083Z,68.45
2023-12-28T15:26:38.931Z,61.90
2023-12-28T15:29:05.760Z,79.45
2023-12-28T15:31:32.633Z,87.25
2023-12-28T15:33:59.575Z,75.57
2023-12-28T15:36:26.353Z,74.85
2023-12-28T15:38:53.034Z,77.30
2023-12-28T15:41:20.017Z,96.00
2023-12-28T15:43:47.175Z,76.82
2023-12-28T15:46:14.994Z,88.32
2023-12-28T15:48:45.157Z,92.80
2023-12-28T15:51:12.094Z,79.95
2023-12-28T15:53:38.802Z,99.35
2023-12-28T15:56:16.264Z,99.95
2023-12-28T15:58:46.462Z,93.72
2023-12-28T16:01:13.530Z,109.82
2023-12-28T16:03:40.578Z,145.85
2023-12-28T16:06:09.350Z,146.68
2023-12-28T16:08:37.402Z,151.52
2023-12-28T16:11:06.792Z,113.97
2023-12-28T16:13:35.939Z,110.30
2023-12-28T16:16:06.924Z,130.90
2023-12-28T16:18:36.165Z,153.60
2023-12-28T16:21:03.250Z,163.35
2023-12-28T16:23:30.328Z,142.35
2023-12-28T16:25:58.766Z,165.63
2023-12-28T16:28:25.462Z,161.18
2023-12-28T16:30:52.256Z,176.57
2023-12-28T16:33:20.002Z,174.65
2023-12-28T16:35:46.811Z,148.77
2023-12-28T16:38:13.585Z,165.60
2023-12-28T16:40:40.313Z,151.52
2023-12-28T16:43:07.760Z,143.50
2023-12-28T16:45:34.581Z,161.45
2023-12-28T16:48:03.208Z,139.18
2023-12-28T16:50:30.527Z,123.30
2023-12-28T16:52:57.286Z,117.93
2023-12-28T16:55:27.092Z,106.32
2023-12-28T16:57:54.452Z,96.78
2023-12-28T17:00:21.297Z,104.70
2023-12-28T17:02:50.525Z,102.43
2023-12-28T17:05:19.124Z,106.50
2023-12-28T17:07:46.656Z,114.75
2023-12-28T17:10:14.799Z,90.82
2023-12-28T17:12:44.801Z,89.38
2023-12-28T17:15:13.455Z,63.10
2023-12-28T17:17:46.146Z,79.30
2023-12-28T17:20:15.367Z,86.10
2023-12-28T17:22:51.543Z,100.18
2023-12-28T17:25:52.599Z,112.00
2023-12-28T17:28:24.463Z,113.20
2023-12-28T17:30:57.098Z,111.43
2023-12-28T17:33:25.593Z,116.00
2023-12-28T17:35:52.612Z,151.10
2023-12-28T17:38:19.659Z,140.75
2023-12-28T17:40:49.092Z,107.28
2023-12-28T17:43:38.719Z,90.25
2023-12-28T17:46:27.459Z,116.35
2023-12-28T17:48:59.567Z,109.50
2023-12-28T17:51:29.872Z,122.20
2023-12-28T17:53:56.958Z,125.63
2023-12-28T17:56:23.676Z,147.45
2023-12-28T17:58:50.748Z,122.60
2023-12-28T18:01:18.854Z,140.48
2023-12-28T18:03:47.311Z,160.05
2023-12-28T18:06:16.964Z,185.07
2023-12-28T18:08:43.655Z,179.10
2023-12-28T18:11:10.395Z,166.05
2023-12-28T18:13:37.226Z,170.45
2023-12-28T18:16:07.128Z,174.35
2023-12-28T18:18:35.584Z,172.35
2023-12-28T18:21:02.504Z,168.98
2023-12-28T18:23:30.275Z,143.48
2023-12-28T18:25:59.410Z,135.68
2023-12-28T18:28:26.155Z,136.77
2023-12-28T18:30:53.513Z,176.27
2023-12-28T18:33:24.896Z,233.10
2023-12-28T18:35:51.891Z,221.30
2023-12-28T18:38:20.964Z,194.05
2023-12-28T18:40:48.954Z,137.02
2023-12-28T18:43:16.250Z,150.88
2023-12-28T18:45:47.000Z,115.90
2023-12-28T18:48:15.583Z,132.55
2023-12-28T18:50:43.263Z,176.38
2023-12-28T18:53:11.372Z,148.70
2023-12-28T18:55:39.774Z,146.10
2023-12-28T18:58:10.067Z,117.10
2023-12-28T19:00:38.165Z,97.38
2023-12-28T19:03:05.754Z,117.28
2023-12-28T19:05:34.296Z,107.57
2023-12-28T19:08:01.640Z,107.95
2023-12-28T19:10:28.770Z,119.68
2023-12-28T19:12:56.235Z,142.25
2023-12-28T19:15:23.062Z,126.85
2023-12-28T19:17:49.976Z,128.52
2023-12-28T19:20:16.802Z,156.05
2023-12-28T19:22:43.737Z,153.05
2023-12-28T19:25:11.429Z,157.23
2023-12-28T19:27:38.208Z,138.15
2023-12-28T19:30:07.559Z,120.30
2023-12-28T19:32:34.497Z,113.00
2023-12-28T19:35:01.667Z,101.05
2023-12-28T19:37:28.536Z,137.25
2023-12-28T19:39:55.254Z,152.90
2023-12-28T19:42:22.019Z,108.20
2023-12-28T19:44:50.439Z,106.88
2023-12-28T19:47:17.218Z,118.07
2023-12-28T19:49:45.915Z,136.60
2023-12-28T19:52:14.806Z,127.75
2023-12-28T19:54:41.754Z,191.40
2023-12-28T19:57:08.750Z,180.95
2023-12-28T19:59:35.401Z,180.02
2023-12-28T20:02:03.407Z,133.55
2023-12-28T20:04:30.182Z,173.52
2023-12-28T20:06:57.722Z,219.75
2023-12-28T20:09:27.428Z,138.75
2023-12-28T20:11:55.467Z,138.05
2023-12-28T20:14:26.443Z,115.22
2023-12-28T20:16:53.366Z,111.70
2023-12-28T20:19:25.308Z,141.93
2023-12-28T20:21:54.027Z,116.22
2023-12-28T20:24:22.518Z,115.20
2023-12-28T20:26:49.493Z,139.88
2023-12-28T20:29:16.286Z,133.05
2023-12-28T20:31:44.499Z,126.03
2023-12-28T20:34:11.889Z,113.82
2023-12-28T20:36:38.848Z,109.70
2023-12-28T20:39:07.343Z,115.93
2023-12-28T20:41:34.349Z,116.07
2023-12-28T20:44:02.383Z,127.82
2023-12-28T20:46:30.157Z,117.78
2023-12-28T20:48:58.346Z,121.90
2023-12-28T20:51:26.797Z,116.25
2023-12-28T20:53:56.241Z,132.43
2023-12-28T20:56:23.395Z,131.57
2023-12-28T20:58:51.330Z,123.05
2023-12-28T21:01:18.202Z,129.30
2023-12-28T21:03:46.162Z,114.03
2023-12-28T21:06:12.893Z,108.70
2023-12-28T21:08:39.573Z,100.63
2023-12-28T21:11:06.382Z,85.53
2023-12-28T21:13:40.000Z,108.82
2023-12-28T21:16:08.517Z,99.60
2023-12-28T21:18:36.026Z,92.10
2023-12-28T21:21:10.236Z,122.43
2023-12-28T21:23:40.740Z,108.18
2023-12-28T21:26:07.695Z,108.93
2023-12-28T21:28:34.625Z,125.65
2023-12-28T21:31:01.823Z,130.15
2023-12-28T21:33:28.876Z,121.50
2023-12-28T21:35:55.940Z,133.80
2023-12-28T21:38:22.682Z,128.63
2023-12-28T21:40:49.396Z,116.03
2023-12-28T21:43:16.173Z,105.67
2023-12-28T21:45:43.628Z,103.60
2023-12-28T21:48:10.571Z,106.85
2023-12-28T21:50:38.132Z,97.43
2023-12-28T21:53:05.449Z,80.93
2023-12-28T21:55:32.155Z,89.70
2023-12-28T21:58:00.128Z,89.97
2023-12-28T22:00:27.082Z,86.30
2023-12-28T22:02:53.792Z,94.97
2023-12-28T22:05:20.486Z,93.82
2023-12-28T22:07:47.298Z,95.90
2023-12-28T22:10:14.267Z,96.00
2023-12-28T22:12:41.086Z,85.03
2023-12-28T22:15:08.442Z,96.32
2023-12-28T22:17:36.503Z,84.53
2023-12-28T22:20:08.651Z,96.88
2023-12-28T22:22:36.673Z,89.18
2023-12-28T22:25:06.141Z,88.17
2023-12-28T22:27:32.919Z,78.40
2023-12-28T22:29:59.608Z,82.85
2023-12-28T22:32:26.713Z,81.75
2023-12-28T22:34:53.680Z,78.30
2023-12-28T22:37:20.464Z,73.50
2023-12-28T22:39:47.208Z,76.43
2023-12-28T22:42:21.307Z,107.57
2023-12-28T22:44:48.014Z,86.03
2023-12-28T22:47:15.020Z,82.33
2023-12-28T22:49:42.195Z,82.13
2023-12-28T22:52:10.264Z,74.03
2023-12-28T22:54:39.613Z,83.43
2023-12-28T22:57:06.388Z,71.70
2023-12-28T22:59:33.157Z,70.40
2023-12-28T23:01:59.987Z,69.55
2023-12-28T23:04:26.731Z,74.95
2023-12-28T23:06:53.443Z,81.32
2023-12-28T23:09:20.796Z,79.57
2023-12-28T23:11:47.500Z,65.63
2023-12-28T23:14:14.217Z,68.97
2023-12-28T23:16:41.010Z,59.13
2023-12-28T23:19:07.842Z,76.93
2023-12-28T23:21:36.025Z,53.35
2023-12-28T23:24:02.787Z,60.63
2023-12-28T23:26:29.617Z,51.57
2023-12-28T23:28:56.380Z,53.20
2023-12-28T23:31:26.038Z,50.97
2023-12-28T23:33:53.515Z,55.28
2023-12-28T23:36:21.250Z,59.43
2023-12-28T23:38:49.051Z,63.87
2023-12-28T23:41:15.831Z,55.47
2023-12-28T23:43:42.630Z,46.57
2023-12-28T23:46:09.475Z,41.10
2023-12-28T23:48:36.505Z,43.30
2023-12-28T23:51:06.809Z,53.17
2023-12-28T23:53:33.465Z,45.67
2023-12-28T23:56:00.209Z,58.03
2023-12-28T23:58:28.599Z,49.50
